createdAt,value
2019-05-02T00:00:50.341Z,8.00
2019-05-02T00:03:19.789Z,12.70
2019-05-02T00:05:48.985Z,10.07
2019-05-02T00:08:18.469Z,12.93
2019-05-02T00:10:48.822Z,11.13
2019-05-02T00:13:18.698Z,11.53
2019-05-02T00:15:49.320Z,14.93
2019-05-02T00:18:18.733Z,13.47
2019-05-02T00:20:48.093Z,19.70
2019-05-02T00:23:17.271Z,15.80
2019-05-02T00:25:47.292Z,21.47
2019-05-02T00:28:17.180Z,15.17
2019-05-02T00:30:46.368Z,16.67
2019-05-02T00:33:15.471Z,16.97
2019-05-02T00:35:46.323Z,12.40
2019-05-02T00:38:15.294Z,12.43
2019-05-02T00:40:46.347Z,15.03
2019-05-02T00:43:15.223Z,15.00
2019-05-02T00:45:44.323Z,14.00
2019-05-02T00:48:23.031Z,17.00
2019-05-02T00:50:50.910Z,14.77
2019-05-02T00:53:20.841Z,17.10
2019-05-02T00:55:49.938Z,18.73
2019-05-02T00:58:19.002Z,16.57
2019-05-02T01:01:07.095Z,18.13
2019-05-02T01:03:37.941Z,18.27
2019-05-02T01:06:13.902Z,16.47
2019-05-02T01:08:37.845Z,17.60
2019-05-02T01:11:06.926Z,15.63
2019-05-02T01:13:36.000Z,15.60
2019-05-02T01:16:05.091Z,15.50
2019-05-02T01:18:37.182Z,15.33
2019-05-02T01:21:04.986Z,14.77
2019-05-02T01:23:34.047Z,14.53
2019-05-02T01:26:03.141Z,17.80
2019-05-02T01:28:54.363Z,16.77
2019-05-02T01:31:27.350Z,18.43
2019-05-02T01:34:18.068Z,14.90
2019-05-02T01:36:51.271Z,11.80
2019-05-02T01:39:20.342Z,14.93
2019-05-02T01:41:49.428Z,15.60
2019-05-02T01:44:18.495Z,15.90
2019-05-02T01:46:47.599Z,14.93
2019-05-02T01:49:21.317Z,15.37
2019-05-02T01:51:49.262Z,12.70
2019-05-02T01:54:18.262Z,10.93
2019-05-02T01:56:47.344Z,7.70
2019-05-02T01:59:16.404Z,10.40
2019-05-02T02:01:45.498Z,9.50
2019-05-02T02:04:16.140Z,11.33
2019-05-02T02:06:45.381Z,12.23
2019-05-02T02:09:14.456Z,12.37
2019-05-02T02:11:43.570Z,12.30
2019-05-02T02:14:16.132Z,12.77
2019-05-02T02:16:43.496Z,17.87
2019-05-02T02:19:21.176Z,16.70
2019-05-02T02:22:04.450Z,17.60
2019-05-02T02:24:38.449Z,17.33
2019-05-02T02:27:07.705Z,15.20
2019-05-02T02:29:41.997Z,12.77
2019-05-02T02:32:07.621Z,17.70
2019-05-02T02:34:36.621Z,18.97
2019-05-02T02:37:12.178Z,17.60
2019-05-02T02:39:36.514Z,16.03
2019-05-02T02:42:05.641Z,16.50
2019-05-02T02:44:41.951Z,22.63
2019-05-02T02:47:11.921Z,21.17
2019-05-02T02:49:41.985Z,22.43
2019-05-02T02:52:11.053Z,23.83
2019-05-02T02:54:43.525Z,21.97
2019-05-02T02:57:20.061Z,21.10
2019-05-02T02:59:41.752Z,23.37
2019-05-02T03:02:12.183Z,24.07
2019-05-02T03:04:44.164Z,20.90
2019-05-02T03:07:24.051Z,21.73
2019-05-02T03:09:43.039Z,21.63
2019-05-02T03:12:41.448Z,18.87
2019-05-02T03:15:11.537Z,18.53
2019-05-02T03:17:40.722Z,17.87
2019-05-02T03:20:09.801Z,18.53
2019-05-02T03:22:41.509Z,18.40
2019-05-02T03:25:09.879Z,19.50
2019-05-02T03:27:40.409Z,14.77
2019-05-02T03:30:09.625Z,13.93
2019-05-02T03:32:38.843Z,13.83
2019-05-02T03:35:07.995Z,19.07
2019-05-02T03:37:37.119Z,11.77
2019-05-02T03:40:06.362Z,13.47
2019-05-02T03:42:43.665Z,9.47
2019-05-02T03:45:06.353Z,17.63
2019-05-02T03:47:36.694Z,10.90
2019-05-02T03:50:08.971Z,11.37
2019-05-02T03:52:43.972Z,8.00
2019-05-02T03:55:08.113Z,12.70
2019-05-02T03:57:41.712Z,16.17
2019-05-02T04:00:13.708Z,20.00
2019-05-02T04:02:39.108Z,15.73
2019-05-02T04:05:08.429Z,14.27
2019-05-02T04:07:40.420Z,14.63
2019-05-02T04:10:13.467Z,20.70
2019-05-02T04:12:40.439Z,18.47
2019-05-02T04:15:09.868Z,13.10
2019-05-02T04:17:40.289Z,11.83
2019-05-02T04:20:12.491Z,11.43
2019-05-02T04:22:42.791Z,19.70
2019-05-02T04:25:10.990Z,19.60
2019-05-02T04:27:40.458Z,16.10
2019-05-02T04:30:13.828Z,12.60
2019-05-02T04:32:42.985Z,14.03
2019-05-02T04:35:11.103Z,13.23
2019-05-02T04:37:41.052Z,13.10
2019-05-02T04:40:12.352Z,16.80
2019-05-02T04:42:41.768Z,16.37
2019-05-02T04:45:24.364Z,13.50
2019-05-02T04:47:42.479Z,14.97
2019-05-02T04:50:17.834Z,13.37
2019-05-02T04:52:48.347Z,12.67
2019-05-02T04:55:24.882Z,14.23
2019-05-02T04:57:48.011Z,11.67
2019-05-02T05:00:18.529Z,12.00
2019-05-02T05:02:48.496Z,17.47
2019-05-02T05:05:25.789Z,14.50
2019-05-02T05:07:49.543Z,14.23
2019-05-02T05:10:18.789Z,14.83
2019-05-02T05:12:48.058Z,13.73
2019-05-02T05:15:33.869Z,14.23
2019-05-02T05:17:50.041Z,14.37
2019-05-02T05:20:18.860Z,13.53
2019-05-02T05:22:47.997Z,13.57
2019-05-02T05:25:22.024Z,12.73
2019-05-02T05:27:52.664Z,16.50
2019-05-02T05:30:21.905Z,14.47
2019-05-02T05:32:51.043Z,14.70
2019-05-02T05:35:20.126Z,15.20
2019-05-02T05:37:53.098Z,16.30
2019-05-02T05:40:22.644Z,14.87
2019-05-02T05:42:51.200Z,16.40
2019-05-02T05:45:20.308Z,16.10
2019-05-02T05:47:52.490Z,14.43
2019-05-02T05:50:20.186Z,13.90
2019-05-02T05:52:51.698Z,17.33
2019-05-02T05:55:24.009Z,18.97
2019-05-02T05:57:59.533Z,18.37
2019-05-02T06:00:23.213Z,17.83
2019-05-02T06:02:56.244Z,19.40
2019-05-02T06:05:23.312Z,19.27
2019-05-02T06:07:52.420Z,18.37
2019-05-02T06:10:21.544Z,17.93
2019-05-02T06:12:50.628Z,17.50
2019-05-02T06:15:19.709Z,18.87
2019-05-02T06:17:48.699Z,19.10
2019-05-02T06:20:17.786Z,19.33
2019-05-02T06:22:46.868Z,19.77
2019-05-02T06:25:32.404Z,19.63
2019-05-02T06:27:48.558Z,19.20
2019-05-02T06:30:17.886Z,18.43
2019-05-02T06:32:50.028Z,18.53
2019-05-02T06:35:21.124Z,19.33
2019-05-02T06:37:50.102Z,19.87
2019-05-02T06:40:19.433Z,16.23
2019-05-02T06:42:48.442Z,18.53
2019-05-02T06:45:19.009Z,17.30
2019-05-02T06:47:48.093Z,20.27
2019-05-02T06:50:17.390Z,17.90
2019-05-02T06:52:46.449Z,16.40
2019-05-02T06:55:15.542Z,15.03
2019-05-02T06:57:44.622Z,15.77
2019-05-02T07:00:13.816Z,15.60
2019-05-02T07:02:42.888Z,15.43
2019-05-02T07:05:12.065Z,15.23
2019-05-02T07:07:41.158Z,15.93
2019-05-02T07:10:10.842Z,14.47
2019-05-02T07:12:39.851Z,15.00
2019-05-02T07:15:23.310Z,16.40
2019-05-02T07:17:52.487Z,16.17
2019-05-02T07:20:21.677Z,15.17
2019-05-02T07:22:50.776Z,14.70
2019-05-02T07:25:19.845Z,13.30
2019-05-02T07:27:48.949Z,12.73
2019-05-02T07:30:19.410Z,13.80
2019-05-02T07:32:48.528Z,15.43
2019-05-02T07:35:19.290Z,13.30
2019-05-02T07:37:50.042Z,14.40
2019-05-02T07:40:19.399Z,18.10
2019-05-02T07:42:48.490Z,17.90
2019-05-02T07:45:17.582Z,16.83
2019-05-02T07:47:46.682Z,18.33
2019-05-02T07:50:15.963Z,18.03
2019-05-02T07:52:45.048Z,16.97
2019-05-02T07:55:14.111Z,17.93
2019-05-02T07:57:43.199Z,14.50
2019-05-02T08:00:13.980Z,17.80
2019-05-02T08:02:43.094Z,18.50
2019-05-02T08:05:15.583Z,16.37
2019-05-02T08:07:43.102Z,16.00
2019-05-02T08:10:16.291Z,16.43
2019-05-02T08:12:43.353Z,12.20
2019-05-02T08:15:13.579Z,16.23
2019-05-02T08:17:43.363Z,18.07
2019-05-02T08:20:13.658Z,15.93
2019-05-02T08:22:43.979Z,16.17
2019-05-02T08:25:14.100Z,16.17
2019-05-02T08:28:10.060Z,17.17
2019-05-02T08:30:41.968Z,14.77
2019-05-02T08:33:11.112Z,13.20
2019-05-02T08:35:40.190Z,15.07
2019-05-02T08:38:12.655Z,15.17
2019-05-02T08:40:42.325Z,15.03
2019-05-02T08:43:11.035Z,13.10
2019-05-02T08:45:40.044Z,14.03
2019-05-02T08:48:09.149Z,15.33
2019-05-02T08:50:38.272Z,14.70
2019-05-02T08:53:07.364Z,15.03
2019-05-02T08:55:36.435Z,15.27
2019-05-02T08:58:06.597Z,14.17
2019-05-02T09:00:37.602Z,13.97
2019-05-02T09:03:07.237Z,15.00
2019-05-02T09:05:42.863Z,14.33
2019-05-02T09:08:09.157Z,14.17
2019-05-02T09:10:42.160Z,11.93
2019-05-02T09:13:08.781Z,14.53
2019-05-02T09:15:40.253Z,13.53
2019-05-02T09:18:08.662Z,15.73
2019-05-02T09:20:37.734Z,15.97
2019-05-02T09:23:06.830Z,14.00
2019-05-02T09:25:35.905Z,15.50
2019-05-02T09:28:05.456Z,14.63
2019-05-02T09:30:34.527Z,13.10
2019-05-02T09:33:06.478Z,12.47
2019-05-02T09:35:34.464Z,10.63
2019-05-02T09:38:03.538Z,13.67
2019-05-02T09:40:32.644Z,14.23
2019-05-02T09:43:04.368Z,15.37
2019-05-02T09:45:37.332Z,14.90
2019-05-02T09:48:07.942Z,14.77
2019-05-02T09:50:38.185Z,15.10
2019-05-02T09:53:06.303Z,15.17
2019-05-02T09:55:35.389Z,15.20
2019-05-02T09:58:04.478Z,14.63
2019-05-02T10:00:58.872Z,13.87
2019-05-02T10:03:27.996Z,16.40
2019-05-02T10:05:57.088Z,12.50
2019-05-02T10:08:26.163Z,17.43
2019-05-02T10:10:55.332Z,14.20
2019-05-02T10:13:24.414Z,14.43
2019-05-02T10:15:53.537Z,11.47
2019-05-02T10:18:25.517Z,17.20
2019-05-02T10:20:53.428Z,16.93
2019-05-02T10:23:23.389Z,16.40
2019-05-02T10:25:52.788Z,15.60
2019-05-02T10:28:22.907Z,16.33
2019-05-02T10:30:56.505Z,16.17
2019-05-02T10:33:22.883Z,16.70
2019-05-02T10:35:52.630Z,17.00
2019-05-02T10:38:22.753Z,18.00
2019-05-02T10:40:54.576Z,17.27
2019-05-02T10:43:22.915Z,15.93
2019-05-02T10:46:01.813Z,16.73
2019-05-02T10:48:32.949Z,16.77
2019-05-02T10:51:19.551Z,18.33
2019-05-02T10:53:52.772Z,18.03
2019-05-02T10:56:19.446Z,19.53
2019-05-02T10:58:48.508Z,16.40
2019-05-02T11:01:19.187Z,19.20
2019-05-02T11:03:48.947Z,18.60
2019-05-02T11:06:18.077Z,20.03
2019-05-02T11:08:47.119Z,17.50
2019-05-02T11:11:16.322Z,17.73
2019-05-02T11:13:53.352Z,20.37
2019-05-02T11:16:42.299Z,19.13
2019-05-02T11:19:43.000Z,18.30
2019-05-02T11:22:12.207Z,19.00
2019-05-02T11:24:41.826Z,20.07
2019-05-02T11:27:12.802Z,18.03
2019-05-02T11:29:42.565Z,20.17
2019-05-02T11:32:12.781Z,18.70
2019-05-02T11:34:42.160Z,17.37
2019-05-02T11:37:12.134Z,19.17
2019-05-02T11:39:48.953Z,20.17
2019-05-02T11:42:12.526Z,20.00
2019-05-02T11:44:41.872Z,14.83
2019-05-02T11:47:12.639Z,16.67
2019-05-02T11:49:42.556Z,20.47
2019-05-02T11:52:12.697Z,17.93
2019-05-02T11:54:44.701Z,21.53
2019-05-02T11:57:12.600Z,19.47
2019-05-02T11:59:42.502Z,15.60
2019-05-02T12:02:27.710Z,17.30
2019-05-02T12:04:56.783Z,19.30
2019-05-02T12:07:25.895Z,17.73
2019-05-02T12:09:57.153Z,21.13
2019-05-02T12:12:27.346Z,18.53
2019-05-02T12:14:56.583Z,15.73
2019-05-02T12:17:25.675Z,17.13
2019-05-02T12:19:54.742Z,16.83
2019-05-02T12:22:23.828Z,19.17
2019-05-02T12:24:52.927Z,19.47
2019-05-02T12:27:22.198Z,18.13
2019-05-02T12:29:58.014Z,17.60
2019-05-02T12:32:22.510Z,19.20
2019-05-02T12:34:52.610Z,17.73
2019-05-02T12:37:22.009Z,19.70
2019-05-02T12:39:51.722Z,19.80
2019-05-02T12:42:23.566Z,19.67
2019-05-02T12:44:53.283Z,15.40
2019-05-02T12:47:22.625Z,18.00
2019-05-02T12:49:52.044Z,19.27
2019-05-02T12:52:22.590Z,18.57
2019-05-02T12:54:52.548Z,19.00
2019-05-02T12:57:22.089Z,17.60
2019-05-02T12:59:52.443Z,20.10
2019-05-02T13:02:37.422Z,19.23
2019-05-02T13:05:06.727Z,18.17
2019-05-02T13:07:35.740Z,17.90
2019-05-02T13:10:05.401Z,18.57
2019-05-02T13:12:36.735Z,18.63
2019-05-02T13:15:05.910Z,16.87
2019-05-02T13:17:42.816Z,19.03
2019-05-02T13:20:12.421Z,18.37
2019-05-02T13:23:13.704Z,17.77
2019-05-02T13:25:42.494Z,17.13
2019-05-02T13:28:12.267Z,17.83
2019-05-02T13:31:03.454Z,16.53
2019-05-02T13:33:39.384Z,19.90
2019-05-02T13:36:09.889Z,17.40
2019-05-02T13:38:38.997Z,16.73
2019-05-02T13:41:08.077Z,16.57
2019-05-02T13:43:44.369Z,16.17
2019-05-02T13:46:17.485Z,17.53
2019-05-02T13:48:46.575Z,17.50
2019-05-02T13:51:15.760Z,14.83
2019-05-02T13:54:12.515Z,16.97
2019-05-02T13:56:52.419Z,18.27
2019-05-02T13:59:22.359Z,18.90
2019-05-02T14:01:53.542Z,16.73
2019-05-02T14:04:23.414Z,16.73
2019-05-02T14:06:52.996Z,17.23
2019-05-02T14:09:40.042Z,17.97
2019-05-02T14:12:21.761Z,17.10
2019-05-02T14:14:51.913Z,19.07
2019-05-02T14:17:22.908Z,16.47
2019-05-02T14:20:01.174Z,16.73
2019-05-02T14:22:22.722Z,19.70
2019-05-02T14:24:52.040Z,14.23
2019-05-02T14:27:22.368Z,13.70
2019-05-02T14:29:52.544Z,16.53
2019-05-02T14:32:26.289Z,16.37
2019-05-02T14:35:11.828Z,14.30
2019-05-02T14:37:42.124Z,17.90
2019-05-02T14:40:27.384Z,19.30
2019-05-02T14:42:57.761Z,18.80
2019-05-02T14:45:31.257Z,17.17
2019-05-02T14:48:08.899Z,17.77
2019-05-02T14:50:28.902Z,16.43
2019-05-02T14:53:02.196Z,18.67
2019-05-02T14:55:32.545Z,16.00
2019-05-02T14:58:05.721Z,15.53
2019-05-02T15:00:39.475Z,14.77
2019-05-02T15:03:05.655Z,16.30
2019-05-02T15:05:34.748Z,16.80
2019-05-02T15:08:06.773Z,14.87
2019-05-02T15:10:37.622Z,17.40
2019-05-02T15:13:05.371Z,16.73
2019-05-02T15:15:40.691Z,18.40
2019-05-02T15:18:07.936Z,17.50
2019-05-02T15:20:39.292Z,17.57
2019-05-02T15:23:07.227Z,17.30
2019-05-02T15:25:37.597Z,19.03
2019-05-02T15:28:08.311Z,18.50
2019-05-02T15:30:44.833Z,17.47
2019-05-02T15:33:12.605Z,15.60
2019-05-02T15:36:01.898Z,14.27
2019-05-02T15:38:28.385Z,14.67
2019-05-02T15:40:59.385Z,15.20
2019-05-02T15:43:28.269Z,14.67
2019-05-02T15:45:57.395Z,15.63
2019-05-02T15:48:27.720Z,16.70
2019-05-02T15:51:00.267Z,13.63
2019-05-02T15:53:32.722Z,18.37
2019-05-02T15:56:02.191Z,17.07
2019-05-02T15:58:32.520Z,18.10
2019-05-02T16:01:36.697Z,15.33
2019-05-02T16:04:05.043Z,17.60
2019-05-02T16:06:34.126Z,17.83
2019-05-02T16:09:03.140Z,17.03
2019-05-02T16:11:32.320Z,17.57
2019-05-02T16:14:02.169Z,15.20
2019-05-02T16:16:32.085Z,20.20
2019-05-02T16:19:02.221Z,21.37
2019-05-02T16:21:42.500Z,18.77
2019-05-02T16:24:22.897Z,17.27
2019-05-02T16:26:55.062Z,20.17
2019-05-02T16:29:28.340Z,16.50
2019-05-02T16:32:03.599Z,14.67
2019-05-02T16:34:35.267Z,14.30
2019-05-02T16:37:13.437Z,11.73
2019-05-02T16:39:42.658Z,14.67
2019-05-02T16:42:12.448Z,14.20
2019-05-02T16:44:42.946Z,19.70
2019-05-02T16:47:13.877Z,15.80
2019-05-02T16:49:43.292Z,15.20
2019-05-02T16:52:23.194Z,12.47
2019-05-02T16:54:52.813Z,14.30
2019-05-02T16:57:22.514Z,14.03
2019-05-02T16:59:55.859Z,16.40
2019-05-02T17:02:23.597Z,18.40
2019-05-02T17:04:54.732Z,20.63
2019-05-02T17:07:39.420Z,19.47
2019-05-02T17:10:17.776Z,21.53
2019-05-02T17:12:47.228Z,21.30
2019-05-02T17:15:31.328Z,18.47
2019-05-02T17:18:04.906Z,22.43
2019-05-02T17:20:31.945Z,18.13
2019-05-02T17:23:03.314Z,20.63
2019-05-02T17:25:32.253Z,19.50
2019-05-02T17:28:06.977Z,23.50
2019-05-02T17:30:38.615Z,19.10
2019-05-02T17:33:07.190Z,24.83
2019-05-02T17:35:33.920Z,21.23
2019-05-02T17:38:03.123Z,21.83
2019-05-02T17:40:32.194Z,19.77
2019-05-02T17:43:02.826Z,15.97
2019-05-02T17:45:33.305Z,15.17
2019-05-02T17:48:08.444Z,16.23
2019-05-02T17:50:49.533Z,12.20
2019-05-02T17:53:20.053Z,12.30
2019-05-02T17:55:49.140Z,15.67
2019-05-02T17:58:18.215Z,16.03
2019-05-02T18:00:54.571Z,11.63
2019-05-02T18:03:24.285Z,12.97
2019-05-02T18:05:52.929Z,9.97
2019-05-02T18:08:22.079Z,12.93
2019-05-02T18:10:58.547Z,11.60
2019-05-02T18:13:22.835Z,13.33
2019-05-02T18:15:53.500Z,9.27
2019-05-02T18:18:22.615Z,15.17
2019-05-02T18:20:52.872Z,14.60
2019-05-02T18:23:24.088Z,14.97
2019-05-02T18:25:57.427Z,18.67
2019-05-02T18:28:26.334Z,25.33
2019-05-02T18:30:57.122Z,22.70
2019-05-02T18:33:25.349Z,25.33
2019-05-02T18:35:54.443Z,26.83
2019-05-02T18:38:25.208Z,24.60
2019-05-02T18:40:55.376Z,27.87
2019-05-02T18:43:24.579Z,22.87
2019-05-02T18:45:57.961Z,24.33
2019-05-02T18:48:24.396Z,21.83
2019-05-02T18:50:53.497Z,19.70
2019-05-02T18:53:24.252Z,23.43
2019-05-02T18:55:56.742Z,21.87
2019-05-02T18:58:24.276Z,22.13
2019-05-02T19:00:53.379Z,22.93
2019-05-02T19:03:23.016Z,21.37
2019-05-02T19:05:57.133Z,21.43
2019-05-02T19:08:30.859Z,19.37
2019-05-02T19:11:04.598Z,16.53
2019-05-02T19:13:24.807Z,20.50
2019-05-02T19:15:53.974Z,19.80
2019-05-02T19:18:23.042Z,20.13
2019-05-02T19:21:03.161Z,16.93
2019-05-02T19:23:33.543Z,14.17
2019-05-02T19:26:09.957Z,18.00
2019-05-02T19:28:42.931Z,15.57
2019-05-02T19:31:12.064Z,16.13
2019-05-02T19:33:42.546Z,13.63
2019-05-02T19:36:16.476Z,16.27
2019-05-02T19:38:42.925Z,17.57
2019-05-02T19:41:12.462Z,21.30
2019-05-02T19:43:49.400Z,24.80
2019-05-02T19:46:12.377Z,23.90
2019-05-02T19:48:43.021Z,24.00
2019-05-02T19:51:18.434Z,21.40
2019-05-02T19:53:43.051Z,25.27
2019-05-02T19:56:12.787Z,25.13
2019-05-02T19:58:46.438Z,26.63
2019-05-02T20:01:17.546Z,26.33
2019-05-02T20:03:43.746Z,27.17
2019-05-02T20:06:12.969Z,26.37
2019-05-02T20:08:42.103Z,24.53
2019-05-02T20:11:12.581Z,25.37
2019-05-02T20:13:41.749Z,21.53
2019-05-02T20:16:19.632Z,22.50
2019-05-02T20:18:48.718Z,22.07
2019-05-02T20:21:39.840Z,21.43
2019-05-02T20:24:14.098Z,23.47
2019-05-02T20:26:41.685Z,19.87
2019-05-02T20:29:10.638Z,17.90
2019-05-02T20:31:39.753Z,20.50
2019-05-02T20:34:08.855Z,22.53
2019-05-02T20:36:37.939Z,16.70
2019-05-02T20:39:09.456Z,19.50
2019-05-02T20:41:38.537Z,20.70
2019-05-02T20:44:07.617Z,19.17
2019-05-02T20:46:36.724Z,18.87
2019-05-02T20:49:05.886Z,22.97
2019-05-02T20:51:34.958Z,20.93
2019-05-02T20:54:04.060Z,22.07
2019-05-02T20:56:33.140Z,19.47
2019-05-02T20:59:02.235Z,17.80
2019-05-02T21:01:32.203Z,23.07
2019-05-02T21:04:02.739Z,21.63
2019-05-02T21:06:43.872Z,22.97
2019-05-02T21:09:38.587Z,19.77
2019-05-02T21:12:08.063Z,23.07
2019-05-02T21:14:37.266Z,21.70
2019-05-02T21:17:06.761Z,20.60
2019-05-02T21:19:35.841Z,15.27
2019-05-02T21:22:09.421Z,19.07
2019-05-02T21:24:38.493Z,18.70
2019-05-02T21:27:07.574Z,19.20
2019-05-02T21:29:36.666Z,23.03
2019-05-02T21:32:05.759Z,17.30
2019-05-02T21:34:34.849Z,13.50
2019-05-02T21:37:03.921Z,12.73
2019-05-02T21:39:33.029Z,10.83
2019-05-02T21:42:02.412Z,11.03
2019-05-02T21:44:31.679Z,13.70
2019-05-02T21:47:02.490Z,14.10
2019-05-02T21:50:05.754Z,15.37
2019-05-02T21:52:52.570Z,13.43
2019-05-02T21:55:32.354Z,17.03
2019-05-02T21:58:02.742Z,14.50
2019-05-02T22:00:49.656Z,11.53
2019-05-02T22:03:18.768Z,12.50
2019-05-02T22:05:47.843Z,13.03
2019-05-02T22:08:17.045Z,15.87
2019-05-02T22:10:46.128Z,12.57
2019-05-02T22:13:15.242Z,11.10
2019-05-02T22:15:44.304Z,8.57
2019-05-02T22:18:13.386Z,10.90
2019-05-02T22:20:42.825Z,12.13
2019-05-02T22:23:11.947Z,8.57
2019-05-02T22:25:41.967Z,10.27
2019-05-02T22:28:12.599Z,8.00
2019-05-02T22:30:42.907Z,5.57
2019-05-02T22:33:12.117Z,6.67
2019-05-02T22:35:43.140Z,6.07
2019-05-02T22:38:18.875Z,4.97
2019-05-02T22:40:50.175Z,6.10
2019-05-02T22:43:19.249Z,6.83
2019-05-02T22:45:48.264Z,5.13
2019-05-02T22:48:17.325Z,4.73
2019-05-02T22:50:46.671Z,3.07
2019-05-02T22:53:15.742Z,4.50
2019-05-02T22:55:44.842Z,3.83
2019-05-02T22:58:13.922Z,3.07
2019-05-02T23:00:43.029Z,3.63
2019-05-02T23:03:12.560Z,2.80
2019-05-02T23:05:42.215Z,2.17
2019-05-02T23:08:12.593Z,1.97
2019-05-02T23:10:41.782Z,2.00
2019-05-02T23:13:12.886Z,1.80
2019-05-02T23:15:42.671Z,1.50
2019-05-02T23:18:12.215Z,1.87
2019-05-02T23:20:42.178Z,2.23
2019-05-02T23:23:12.499Z,1.60
2019-05-02T23:26:15.804Z,2.27
2019-05-02T23:28:47.423Z,2.00
2019-05-02T23:31:16.510Z,2.43
2019-05-02T23:34:02.038Z,2.10
2019-05-02T23:36:32.730Z,2.10
2019-05-02T23:39:02.738Z,1.80
2019-05-02T23:41:32.859Z,2.27
2019-05-02T23:44:02.849Z,2.13
2019-05-02T23:46:32.138Z,1.60
2019-05-02T23:49:02.010Z,1.80
2019-05-02T23:51:32.041Z,2.00
2019-05-02T23:54:02.125Z,1.90
2019-05-02T23:56:32.492Z,2.07
2019-05-02T23:59:02.761Z,2.37
